createdAt,value
2023-04-09T00:00:52.097Z,85.37
2023-04-09T00:01:52.110Z,85.06
2023-04-09T00:02:52.081Z,85.06
2023-04-09T00:03:52.187Z,85.17
2023-04-09T00:04:52.188Z,85.27
2023-04-09T00:05:52.037Z,85.06
2023-04-09T00:06:52.034Z,85.06
2023-04-09T00:07:52.029Z,85.37
2023-04-09T00:08:52.194Z,86.03
2023-04-09T00:09:51.981Z,85.47
2023-04-09T00:10:51.974Z,85.52
2023-04-09T00:11:52.091Z,85.78
2023-04-09T00:12:51.956Z,85.83
2023-04-09T00:13:51.946Z,86.34
2023-04-09T00:14:51.936Z,86.55
2023-04-09T00:15:51.962Z,86.55
2023-04-09T00:16:52.041Z,86.24
2023-04-09T00:17:51.934Z,86.13
2023-04-09T00:18:52.202Z,86.44
2023-04-09T00:19:51.880Z,86.03
2023-04-09T00:20:51.875Z,86.03
2023-04-09T00:21:51.852Z,86.13
2023-04-09T00:22:51.855Z,86.13
2023-04-09T00:23:51.883Z,86.34
2023-04-09T00:24:51.833Z,86.34
2023-04-09T00:25:51.815Z,86.34
2023-04-09T00:26:51.800Z,86.44
2023-04-09T00:27:51.786Z,86.13
2023-04-09T00:28:52.066Z,86.07
2023-04-09T00:29:51.784Z,86.38
2023-04-09T00:30:51.775Z,86.44
2023-04-09T00:31:51.807Z,86.24
2023-04-09T00:32:51.752Z,86.28
2023-04-09T00:33:51.734Z,86.59
2023-04-09T00:34:51.727Z,86.03
2023-04-09T00:35:51.904Z,86.18
2023-04-09T00:36:51.694Z,86.18
2023-04-09T00:37:51.843Z,86.28
2023-04-09T00:38:52.002Z,86.34
2023-04-09T00:39:51.675Z,86.59
2023-04-09T00:40:51.661Z,86.59
2023-04-09T00:41:51.649Z,86.38
2023-04-09T00:42:51.619Z,86.49
2023-04-09T00:43:51.662Z,86.59
2023-04-09T00:44:51.821Z,86.79
2023-04-09T00:45:51.634Z,87.00
2023-04-09T00:46:51.589Z,86.69
2023-04-09T00:47:51.690Z,86.90
2023-04-09T00:48:51.878Z,87.00
2023-04-09T00:49:51.935Z,86.79
2023-04-09T00:50:51.535Z,86.69
2023-04-09T00:51:51.526Z,87.00
2023-04-09T00:52:51.514Z,87.62
2023-04-09T00:53:51.516Z,88.34
2023-04-09T00:54:51.849Z,88.90
2023-04-09T00:55:51.507Z,89.11
2023-04-09T00:56:51.473Z,89.22
2023-04-09T00:57:51.473Z,89.32
2023-04-09T00:58:51.687Z,89.22
2023-04-09T00:59:51.455Z,88.90
2023-04-09T01:00:51.464Z,89.22
2023-04-09T01:01:51.458Z,89.42
2023-04-09T01:02:51.478Z,89.22
2023-04-09T01:03:51.413Z,89.42
2023-04-09T01:04:51.383Z,89.32
2023-04-09T01:05:51.376Z,89.11
2023-04-09T01:06:51.366Z,89.56
2023-04-09T01:07:51.347Z,89.73
2023-04-09T01:08:51.592Z,89.62
2023-04-09T01:09:51.331Z,89.62
2023-04-09T01:10:51.317Z,89.73
2023-04-09T01:11:51.352Z,89.83
2023-04-09T01:12:51.287Z,90.50
2023-04-09T01:13:51.289Z,90.70
2023-04-09T01:14:51.807Z,91.01
2023-04-09T01:15:58.394Z,90.91
2023-04-09T01:16:51.298Z,90.50
2023-04-09T01:17:51.316Z,91.32
2023-04-09T01:18:51.518Z,90.84
2023-04-09T01:19:51.227Z,91.32
2023-04-09T01:20:51.206Z,91.53
2023-04-09T01:21:51.198Z,91.22
2023-04-09T01:22:51.200Z,90.70
2023-04-09T01:23:51.166Z,91.36
2023-04-09T01:24:51.151Z,91.26
2023-04-09T01:25:51.144Z,91.05
2023-04-09T01:26:51.131Z,91.32
2023-04-09T01:27:51.152Z,91.16
2023-04-09T01:28:51.451Z,90.95
2023-04-09T01:29:51.097Z,91.26
2023-04-09T01:30:51.141Z,90.84
2023-04-09T01:31:51.075Z,91.05
2023-04-09T01:32:51.119Z,90.95
2023-04-09T01:33:51.070Z,90.95
2023-04-09T01:34:51.041Z,91.36
2023-04-09T01:35:51.061Z,91.05
2023-04-09T01:36:51.019Z,91.11
2023-04-09T01:37:51.044Z,91.16
2023-04-09T01:38:51.173Z,91.16
2023-04-09T01:39:51.055Z,90.95
2023-04-09T01:40:51.021Z,91.16
2023-04-09T01:41:50.975Z,91.36
2023-04-09T01:42:50.970Z,91.05
2023-04-09T01:43:51.000Z,91.16
2023-04-09T01:44:50.926Z,91.26
2023-04-09T01:45:50.924Z,90.95
2023-04-09T01:46:50.909Z,90.84
2023-04-09T01:47:50.957Z,90.95
2023-04-09T01:48:51.182Z,90.23
2023-04-09T01:49:50.872Z,90.64
2023-04-09T01:50:50.861Z,90.12
2023-04-09T01:51:50.859Z,90.64
2023-04-09T01:52:50.838Z,90.53
2023-04-09T01:53:50.850Z,90.23
2023-04-09T01:54:50.823Z,90.74
2023-04-09T01:55:50.841Z,90.74
2023-04-09T01:56:50.793Z,90.44
2023-04-09T01:57:50.801Z,90.23
2023-04-09T01:58:51.214Z,90.23
2023-04-09T01:59:50.789Z,90.64
2023-04-09T02:00:50.749Z,90.33
2023-04-09T02:01:50.804Z,89.92
2023-04-09T02:02:50.914Z,90.23
2023-04-09T02:03:50.823Z,90.23
2023-04-09T02:04:50.777Z,90.53
2023-04-09T02:05:50.696Z,90.64
2023-04-09T02:06:50.679Z,90.53
2023-04-09T02:07:50.670Z,90.44
2023-04-09T02:08:51.053Z,90.44
2023-04-09T02:09:50.651Z,90.74
2023-04-09T02:10:50.655Z,90.95
2023-04-09T02:11:50.637Z,90.95
2023-04-09T02:12:50.635Z,91.05
2023-04-09T02:13:50.624Z,90.74
2023-04-09T02:14:50.597Z,90.95
2023-04-09T02:15:51.414Z,91.09
2023-04-09T02:16:50.586Z,90.99
2023-04-09T02:17:50.622Z,90.95
2023-04-09T02:18:50.893Z,90.89
2023-04-09T02:19:50.544Z,90.68
2023-04-09T02:20:50.535Z,90.99
2023-04-09T02:21:50.516Z,90.99
2023-04-09T02:22:50.521Z,91.20
2023-04-09T02:23:50.526Z,90.89
2023-04-09T02:24:50.487Z,91.09
2023-04-09T02:25:51.345Z,91.51
2023-04-09T02:26:50.473Z,91.51
2023-04-09T02:27:50.536Z,91.51
2023-04-09T02:28:50.652Z,91.51
2023-04-09T02:29:50.435Z,91.41
2023-04-09T02:30:50.419Z,90.89
2023-04-09T02:31:50.425Z,91.09
2023-04-09T02:32:50.452Z,91.51
2023-04-09T02:33:50.381Z,91.41
2023-04-09T02:34:50.365Z,91.41
2023-04-09T02:35:50.395Z,90.89
2023-04-09T02:36:50.350Z,91.20
2023-04-09T02:37:50.348Z,91.20
2023-04-09T02:38:50.578Z,91.30
2023-04-09T02:39:50.315Z,91.20
2023-04-09T02:40:50.305Z,91.51
2023-04-09T02:41:50.295Z,91.66
2023-04-09T02:42:50.301Z,91.61
2023-04-09T02:43:50.271Z,91.72
2023-04-09T02:44:50.260Z,91.61
2023-04-09T02:45:50.249Z,91.61
2023-04-09T02:46:50.258Z,91.61
2023-04-09T02:47:50.300Z,91.82
2023-04-09T02:48:50.502Z,91.61
2023-04-09T02:49:50.260Z,91.72
2023-04-09T02:50:50.202Z,91.66
2023-04-09T02:51:50.396Z,92.18
2023-04-09T02:52:50.203Z,92.18
2023-04-09T02:53:50.165Z,92.49
2023-04-09T02:54:50.146Z,92.80
2023-04-09T02:55:50.159Z,92.90
2023-04-09T02:56:50.135Z,92.18
2023-04-09T02:57:50.116Z,92.49
2023-04-09T02:58:50.217Z,92.59
2023-04-09T02:59:50.099Z,91.97
2023-04-09T03:00:50.086Z,91.55
2023-04-09T03:01:50.152Z,91.97
2023-04-09T03:02:50.280Z,92.18
2023-04-09T03:03:50.288Z,92.69
2023-04-09T03:04:50.040Z,92.49
2023-04-09T03:05:50.037Z,92.38
2023-04-09T03:06:50.018Z,92.28
2023-04-09T03:07:50.034Z,92.43
2023-04-09T03:08:50.297Z,92.28
2023-04-09T03:09:49.995Z,92.43
2023-04-09T03:10:49.980Z,92.43
2023-04-09T03:11:49.987Z,92.59
2023-04-09T03:12:49.980Z,92.32
2023-04-09T03:13:49.967Z,92.49
2023-04-09T03:14:49.935Z,92.53
2023-04-09T03:15:49.949Z,92.63
2023-04-09T03:16:49.909Z,92.74
2023-04-09T03:17:49.906Z,92.84
2023-04-09T03:18:50.208Z,92.43
2023-04-09T03:19:49.911Z,92.28
2023-04-09T03:20:49.875Z,92.38
2023-04-09T03:21:49.854Z,92.53
2023-04-09T03:22:49.848Z,92.43
2023-04-09T03:23:49.835Z,92.28
2023-04-09T03:24:49.847Z,92.28
2023-04-09T03:25:49.864Z,93.00
2023-04-09T03:26:49.803Z,93.15
2023-04-09T03:27:49.815Z,93.21
2023-04-09T03:28:50.192Z,93.21
2023-04-09T03:29:49.786Z,92.94
2023-04-09T03:30:49.759Z,93.25
2023-04-09T03:31:49.808Z,92.84
2023-04-09T03:32:49.802Z,93.15
2023-04-09T03:33:49.751Z,92.94
2023-04-09T03:34:49.718Z,93.04
2023-04-09T03:35:49.759Z,93.04
2023-04-09T03:36:49.720Z,93.04
2023-04-09T03:37:49.689Z,93.15
2023-04-09T03:38:49.932Z,92.74
2023-04-09T03:39:49.661Z,92.84
2023-04-09T03:40:49.649Z,92.63
2023-04-09T03:41:49.647Z,92.84
2023-04-09T03:42:49.669Z,92.74
2023-04-09T03:43:49.622Z,92.94
2023-04-09T03:44:49.684Z,92.53
2023-04-09T03:45:49.595Z,93.15
2023-04-09T03:46:49.719Z,93.77
2023-04-09T03:47:49.611Z,93.25
2023-04-09T03:48:49.639Z,93.56
2023-04-09T03:49:49.558Z,93.50
2023-04-09T03:50:49.544Z,94.08
2023-04-09T03:51:49.557Z,93.87
2023-04-09T03:52:49.528Z,94.43
2023-04-09T03:53:49.504Z,94.81
2023-04-09T03:54:49.515Z,94.91
2023-04-09T03:55:49.486Z,94.95
2023-04-09T03:56:49.473Z,94.85
2023-04-09T03:57:49.467Z,94.95
2023-04-09T03:58:49.705Z,94.74
2023-04-09T03:59:49.443Z,94.95
2023-04-09T04:00:49.437Z,94.43
2023-04-09T04:01:49.478Z,94.74
2023-04-09T04:02:49.619Z,94.64
2023-04-09T04:03:49.562Z,95.68
2023-04-09T04:04:49.502Z,94.74
2023-04-09T04:05:49.385Z,95.16
2023-04-09T04:06:49.372Z,95.57
2023-04-09T04:07:49.378Z,95.26
2023-04-09T04:08:49.406Z,95.47
2023-04-09T04:09:49.350Z,95.06
2023-04-09T04:10:49.350Z,94.95
2023-04-09T04:11:49.337Z,95.06
2023-04-09T04:12:49.355Z,95.26
2023-04-09T04:13:49.301Z,95.06
2023-04-09T04:14:49.301Z,95.06
2023-04-09T04:15:49.264Z,95.26
2023-04-09T04:16:49.265Z,95.20
2023-04-09T04:17:49.269Z,95.37
2023-04-09T04:18:49.259Z,95.93
2023-04-09T04:19:49.241Z,96.86
2023-04-09T04:20:49.226Z,95.83
2023-04-09T04:21:49.202Z,96.91
2023-04-09T04:22:49.197Z,96.70
2023-04-09T04:23:49.200Z,96.70
2023-04-09T04:24:49.186Z,96.91
2023-04-09T04:25:49.175Z,97.07
2023-04-09T04:26:49.165Z,97.80
2023-04-09T04:27:49.144Z,97.38
2023-04-09T04:28:49.154Z,97.69
2023-04-09T04:29:49.127Z,97.69
2023-04-09T04:30:49.130Z,97.86
2023-04-09T04:31:49.126Z,97.75
2023-04-09T04:32:49.127Z,97.75
2023-04-09T04:33:49.073Z,97.55
2023-04-09T04:34:49.062Z,97.55
2023-04-09T04:35:49.093Z,97.71
2023-04-09T04:36:49.041Z,97.71
2023-04-09T04:37:49.028Z,97.50
2023-04-09T04:38:49.052Z,97.87
2023-04-09T04:39:49.030Z,97.87
2023-04-09T04:40:49.000Z,97.87
2023-04-09T04:41:48.983Z,97.87
2023-04-09T04:42:48.978Z,97.83
2023-04-09T04:43:48.963Z,97.93
2023-04-09T04:44:48.975Z,97.72
2023-04-09T04:45:48.963Z,97.93
2023-04-09T04:46:48.933Z,97.83
2023-04-09T04:47:48.943Z,98.03
2023-04-09T04:48:48.909Z,98.65
2023-04-09T04:49:48.922Z,98.75
2023-04-09T04:50:48.889Z,99.07
2023-04-09T04:51:48.881Z,99.02
2023-04-09T04:52:48.896Z,98.92
2023-04-09T04:53:48.853Z,98.82
2023-04-09T04:54:48.859Z,99.13
2023-04-09T04:55:48.868Z,98.92
2023-04-09T04:56:48.840Z,99.02
2023-04-09T04:57:48.809Z,99.23
2023-04-09T04:58:48.804Z,99.02
2023-04-09T04:59:48.793Z,99.60
2023-04-09T05:00:48.802Z,99.64
2023-04-09T05:01:48.777Z,99.99
2023-04-09T05:02:48.939Z,99.99
2023-04-09T05:03:49.038Z,99.60
2023-04-09T05:04:48.757Z,99.99
2023-04-09T05:05:48.736Z,99.91
2023-04-09T05:06:48.717Z,99.99
2023-04-09T05:07:48.706Z,99.99
2023-04-09T05:08:48.686Z,99.99
2023-04-09T05:09:48.676Z,99.99
2023-04-09T05:10:48.683Z,99.96
2023-04-09T05:11:48.677Z,99.99
2023-04-09T05:12:48.642Z,99.86
2023-04-09T05:13:48.628Z,99.65
2023-04-09T05:14:48.631Z,99.76
2023-04-09T05:15:48.813Z,99.86
2023-04-09T05:16:48.618Z,99.51
2023-04-09T05:17:48.619Z,99.04
2023-04-09T05:18:48.626Z,98.52
2023-04-09T05:19:48.567Z,98.52
2023-04-09T05:20:48.563Z,98.62
2023-04-09T05:21:48.555Z,98.72
2023-04-09T05:22:48.531Z,98.83
2023-04-09T05:23:48.525Z,98.52
2023-04-09T05:24:48.507Z,98.83
2023-04-09T05:25:48.509Z,99.04
2023-04-09T05:26:48.500Z,99.24
2023-04-09T05:27:48.494Z,98.41
2023-04-09T05:28:48.471Z,98.27
2023-04-09T05:29:48.450Z,98.68
2023-04-09T05:30:48.487Z,98.57
2023-04-09T05:31:48.444Z,98.27
2023-04-09T05:32:48.463Z,97.44
2023-04-09T05:33:48.416Z,97.54
2023-04-09T05:34:48.399Z,97.64
2023-04-09T05:35:48.397Z,97.33
2023-04-09T05:36:48.389Z,97.19
2023-04-09T05:37:48.464Z,97.33
2023-04-09T05:38:48.356Z,97.39
2023-04-09T05:39:48.344Z,97.44
2023-04-09T05:40:48.449Z,96.88
2023-04-09T05:41:48.339Z,97.19
2023-04-09T05:42:48.314Z,96.77
2023-04-09T05:43:48.321Z,96.67
2023-04-09T05:44:48.293Z,96.15
2023-04-09T05:45:48.327Z,96.47
2023-04-09T05:46:48.287Z,96.67
2023-04-09T05:47:48.334Z,96.67
2023-04-09T05:48:48.251Z,96.67
2023-04-09T05:49:48.370Z,96.94
2023-04-09T05:50:55.063Z,96.31
2023-04-09T05:51:49.379Z,96.36
2023-04-09T05:52:48.209Z,96.11
2023-04-09T05:53:48.202Z,96.52
2023-04-09T05:54:48.183Z,96.52
2023-04-09T05:55:48.173Z,96.47
2023-04-09T05:56:48.179Z,96.36
2023-04-09T05:57:48.158Z,96.05
2023-04-09T05:58:48.139Z,96.21
2023-04-09T05:59:48.160Z,96.52
2023-04-09T06:00:48.122Z,96.47
2023-04-09T06:01:48.899Z,96.73
2023-04-09T06:02:48.270Z,96.62
2023-04-09T06:03:48.291Z,96.11
2023-04-09T06:04:48.092Z,96.21
2023-04-09T06:05:48.065Z,96.11
2023-04-09T06:06:48.075Z,96.52
2023-04-09T06:07:48.058Z,96.21
2023-04-09T06:08:48.030Z,96.21
2023-04-09T06:09:48.016Z,95.64
2023-04-09T06:10:48.024Z,95.53
2023-04-09T06:11:47.995Z,96.51
2023-04-09T06:12:47.996Z,96.15
2023-04-09T06:13:47.969Z,96.56
2023-04-09T06:14:47.964Z,96.67
2023-04-09T06:15:47.979Z,96.36
2023-04-09T06:16:47.940Z,96.56
2023-04-09T06:17:47.963Z,96.73
2023-04-09T06:18:47.918Z,96.42
2023-04-09T06:19:47.930Z,96.31
2023-04-09T06:20:47.894Z,96.21
2023-04-09T06:21:47.884Z,96.11
2023-04-09T06:22:47.886Z,96.21
2023-04-09T06:23:47.917Z,96.48
2023-04-09T06:24:47.848Z,95.45
2023-04-09T06:25:47.915Z,95.03
2023-04-09T06:26:47.835Z,95.65
2023-04-09T06:27:47.824Z,94.82
2023-04-09T06:28:47.826Z,95.24
2023-04-09T06:29:47.807Z,94.99
2023-04-09T06:30:47.839Z,94.17
2023-04-09T06:31:47.794Z,94.78
2023-04-09T06:32:54.211Z,94.32
2023-04-09T06:33:48.760Z,94.74
2023-04-09T06:34:47.752Z,94.43
2023-04-09T06:35:47.743Z,93.60
2023-04-09T06:36:47.715Z,93.46
2023-04-09T06:37:47.780Z,92.84
2023-04-09T06:38:47.707Z,92.69
2023-04-09T06:40:00.624Z,92.49
2023-04-09T06:40:48.679Z,91.87
2023-04-09T06:41:47.657Z,91.36
2023-04-09T06:42:47.665Z,91.42
2023-04-09T06:43:47.639Z,90.90
2023-04-09T06:44:47.629Z,90.80
2023-04-09T06:45:47.627Z,90.66
2023-04-09T06:46:47.714Z,90.45
2023-04-09T06:47:47.689Z,89.73
2023-04-09T06:48:47.586Z,90.14
2023-04-09T06:49:47.575Z,89.83
2023-04-09T06:50:47.568Z,89.56
2023-04-09T06:51:47.553Z,89.91
2023-04-09T06:52:47.553Z,90.78
2023-04-09T06:53:47.621Z,91.09
2023-04-09T06:54:47.516Z,91.25
2023-04-09T06:55:47.504Z,91.66
2023-04-09T06:56:47.499Z,91.36
2023-04-09T06:57:47.689Z,90.90
2023-04-09T06:58:47.490Z,90.49
2023-04-09T06:59:48.392Z,90.55
2023-04-09T07:00:47.455Z,89.94
2023-04-09T07:01:47.567Z,89.42
2023-04-09T07:02:47.676Z,88.96
2023-04-09T07:03:47.526Z,89.01
2023-04-09T07:04:47.424Z,88.14
2023-04-09T07:05:47.390Z,88.14
2023-04-09T07:06:47.390Z,87.52
2023-04-09T07:07:47.398Z,87.84
2023-04-09T07:08:47.363Z,87.79
2023-04-09T07:09:47.348Z,87.90
2023-04-09T07:10:47.354Z,88.10
2023-04-09T07:11:47.335Z,88.06
2023-04-09T07:12:47.332Z,86.56
2023-04-09T07:13:47.350Z,86.46
2023-04-09T07:14:47.295Z,87.42
2023-04-09T07:15:47.414Z,87.63
2023-04-09T07:16:47.298Z,88.14
2023-04-09T07:17:47.333Z,88.04
2023-04-09T07:18:47.248Z,87.84
2023-04-09T07:19:47.264Z,88.35
2023-04-09T07:20:47.225Z,87.84
2023-04-09T07:21:47.250Z,87.49
2023-04-09T07:22:47.205Z,87.63
2023-04-09T07:23:47.198Z,87.73
2023-04-09T07:24:47.186Z,87.84
2023-04-09T07:25:47.173Z,87.94
2023-04-09T07:26:47.158Z,87.90
2023-04-09T07:27:47.163Z,87.84
2023-04-09T07:28:47.153Z,87.59
2023-04-09T07:29:47.131Z,88.10
2023-04-09T07:30:47.144Z,87.18
2023-04-09T07:31:47.136Z,86.83
2023-04-09T07:32:47.136Z,86.72
2023-04-09T07:33:55.237Z,86.42
2023-04-09T07:34:47.088Z,86.58
2023-04-09T07:35:47.135Z,86.27
2023-04-09T07:36:47.049Z,85.66
2023-04-09T07:37:47.105Z,85.70
2023-04-09T07:38:47.027Z,85.86
2023-04-09T07:39:47.028Z,86.07
2023-04-09T07:40:47.025Z,86.00
2023-04-09T07:41:47.004Z,86.11
2023-04-09T07:42:47.152Z,85.97
2023-04-09T07:43:46.993Z,85.66
2023-04-09T07:44:46.968Z,85.93
2023-04-09T07:45:46.953Z,85.41
2023-04-09T07:46:46.984Z,84.49
2023-04-09T07:47:46.957Z,84.34
2023-04-09T07:48:48.337Z,84.34
2023-04-09T07:49:47.111Z,84.34
2023-04-09T07:50:46.899Z,84.34
2023-04-09T07:51:46.915Z,84.25
2023-04-09T07:52:46.873Z,83.73
2023-04-09T07:53:46.887Z,83.49
2023-04-09T07:54:46.859Z,83.18
2023-04-09T07:55:46.895Z,82.97
2023-04-09T07:56:46.830Z,82.42
2023-04-09T07:57:46.828Z,81.87
2023-04-09T07:58:46.825Z,81.22
2023-04-09T07:59:46.819Z,80.85
2023-04-09T08:00:46.790Z,80.71
2023-04-09T08:01:46.871Z,80.51
2023-04-09T08:02:46.953Z,80.09
2023-04-09T08:03:46.891Z,80.19
2023-04-09T08:04:46.869Z,80.09
2023-04-09T08:05:46.737Z,79.68
2023-04-09T08:06:46.793Z,79.62
2023-04-09T08:07:46.735Z,79.99
2023-04-09T08:08:46.931Z,80.03
2023-04-09T08:09:46.701Z,80.44
2023-04-09T08:10:46.686Z,80.44
2023-04-09T08:11:46.667Z,80.68
2023-04-09T08:12:46.652Z,80.85
2023-04-09T08:13:46.669Z,81.20
2023-04-09T08:14:46.640Z,81.36
2023-04-09T08:15:46.625Z,81.20
2023-04-09T08:16:46.714Z,81.15
2023-04-09T08:17:46.627Z,81.26
2023-04-09T08:18:46.614Z,81.46
2023-04-09T08:19:46.668Z,81.36
2023-04-09T08:20:46.662Z,82.29
2023-04-09T08:21:46.569Z,83.22
2023-04-09T08:22:46.541Z,83.83
2023-04-09T08:23:46.555Z,84.49
2023-04-09T08:24:46.523Z,85.35
2023-04-09T08:25:46.647Z,85.60
2023-04-09T08:26:46.635Z,86.21
2023-04-09T08:27:47.125Z,86.93
2023-04-09T08:28:46.488Z,86.48
2023-04-09T08:29:46.474Z,86.58
2023-04-09T08:30:46.472Z,86.58
2023-04-09T08:31:46.515Z,86.07
2023-04-09T08:32:46.492Z,86.03
2023-04-09T08:33:46.420Z,85.89
2023-04-09T08:34:46.410Z,85.78
2023-04-09T08:35:46.414Z,85.47
2023-04-09T08:36:46.445Z,85.62
2023-04-09T08:37:46.563Z,85.82
2023-04-09T08:38:46.370Z,85.76
2023-04-09T08:39:46.392Z,85.93
2023-04-09T08:40:46.339Z,85.97
2023-04-09T08:41:46.343Z,86.13
2023-04-09T08:42:46.324Z,86.03
2023-04-09T08:43:56.936Z,85.78
2023-04-09T08:44:47.298Z,85.54
2023-04-09T08:45:46.314Z,84.78
2023-04-09T08:46:46.299Z,83.25
2023-04-09T08:47:46.349Z,82.59
2023-04-09T08:48:46.258Z,82.24
2023-04-09T08:49:46.410Z,81.32
2023-04-09T08:50:46.234Z,80.67
2023-04-09T08:51:46.244Z,79.91
2023-04-09T08:52:46.211Z,79.88
2023-04-09T08:53:46.200Z,79.06
2023-04-09T08:54:46.228Z,78.72
2023-04-09T08:55:46.210Z,77.45
2023-04-09T08:56:46.167Z,76.53
2023-04-09T08:57:46.198Z,76.33
2023-04-09T08:58:46.192Z,75.68
2023-04-09T08:59:46.132Z,75.78
2023-04-09T09:00:46.134Z,74.97
2023-04-09T09:01:46.179Z,75.21
2023-04-09T09:02:46.166Z,76.03
2023-04-09T09:03:46.199Z,76.09
2023-04-09T09:04:46.073Z,76.03
2023-04-09T09:05:46.061Z,75.78
2023-04-09T09:06:46.083Z,74.18
2023-04-09T09:07:46.058Z,74.45
2023-04-09T09:08:46.908Z,73.40
2023-04-09T09:09:46.016Z,72.58
2023-04-09T09:10:46.013Z,71.33
2023-04-09T09:11:46.033Z,70.68
2023-04-09T09:12:45.983Z,70.14
2023-04-09T09:13:45.973Z,69.87
2023-04-09T09:14:45.958Z,69.09
2023-04-09T09:15:45.950Z,69.19
2023-04-09T09:16:46.005Z,69.19
2023-04-09T09:17:46.014Z,69.60
2023-04-09T09:18:45.913Z,68.68
2023-04-09T09:19:45.906Z,69.90
2023-04-09T09:20:45.980Z,68.65
2023-04-09T09:21:45.980Z,68.59
2023-04-09T09:22:46.013Z,67.33
2023-04-09T09:23:45.859Z,66.46
2023-04-09T09:24:47.191Z,67.87
2023-04-09T09:25:45.842Z,69.63
2023-04-09T09:26:45.855Z,69.16
2023-04-09T09:27:45.945Z,68.49
2023-04-09T09:28:45.808Z,67.16
2023-04-09T09:29:45.801Z,67.13
2023-04-09T09:30:47.840Z,66.49
2023-04-09T09:31:45.771Z,65.65
2023-04-09T09:32:45.782Z,64.43
2023-04-09T09:33:45.794Z,65.64
2023-04-09T09:34:45.743Z,66.22
2023-04-09T09:35:45.775Z,65.62
2023-04-09T09:36:45.730Z,63.23
2023-04-09T09:37:45.706Z,62.15
2023-04-09T09:38:45.694Z,62.12
2023-04-09T09:39:45.704Z,61.19
2023-04-09T09:40:45.673Z,58.83
2023-04-09T09:41:45.707Z,58.87
2023-04-09T09:42:45.665Z,58.27
2023-04-09T09:43:45.664Z,57.71
2023-04-09T09:44:45.625Z,56.24
2023-04-09T09:45:45.643Z,54.33
2023-04-09T09:46:45.608Z,52.89
2023-04-09T09:47:45.645Z,52.51
2023-04-09T09:48:45.582Z,53.58
2023-04-09T09:49:45.578Z,54.30
2023-04-09T09:50:45.566Z,53.09
2023-04-09T09:51:45.583Z,50.43
2023-04-09T09:52:45.555Z,49.74
2023-04-09T09:53:47.084Z,48.28
2023-04-09T09:54:45.516Z,46.80
2023-04-09T09:55:45.514Z,44.33
2023-04-09T09:56:45.509Z,44.78
2023-04-09T09:57:45.488Z,45.63
2023-04-09T09:58:45.499Z,43.30
2023-04-09T09:59:45.488Z,40.70
2023-04-09T10:00:45.459Z,38.13
2023-04-09T10:01:45.496Z,37.65
2023-04-09T10:02:45.594Z,37.28
2023-04-09T10:03:45.439Z,35.55
2023-04-09T10:04:45.489Z,33.61
2023-04-09T10:05:45.405Z,32.77
2023-04-09T10:06:45.431Z,31.56
2023-04-09T10:07:45.378Z,30.97
2023-04-09T10:08:45.371Z,32.32
2023-04-09T10:09:45.355Z,34.00
2023-04-09T10:10:45.348Z,36.23
2023-04-09T10:11:45.351Z,37.37
2023-04-09T10:12:45.929Z,38.02
2023-04-09T10:13:45.316Z,38.67
2023-04-09T10:14:45.300Z,40.32
2023-04-09T10:15:45.329Z,41.46
2023-04-09T10:16:45.278Z,42.49
2023-04-09T10:17:45.281Z,42.91
2023-04-09T10:18:45.273Z,43.23
2023-04-09T10:19:45.245Z,44.47
2023-04-09T10:20:45.272Z,44.49
2023-04-09T10:21:45.252Z,44.87
2023-04-09T10:22:45.322Z,43.07
2023-04-09T10:23:45.220Z,41.20
2023-04-09T10:24:45.254Z,39.03
2023-04-09T10:25:45.180Z,38.07
2023-04-09T10:26:45.174Z,37.27
2023-04-09T10:27:45.972Z,38.32
2023-04-09T10:28:45.162Z,37.98
2023-04-09T10:29:45.346Z,36.88
2023-04-09T10:30:45.130Z,36.51
2023-04-09T10:31:45.140Z,35.35
2023-04-09T10:32:45.142Z,34.78
2023-04-09T10:33:45.105Z,35.85
2023-04-09T10:34:45.094Z,37.92
2023-04-09T10:35:45.079Z,39.09
2023-04-09T10:36:45.063Z,40.24
2023-04-09T10:37:45.049Z,41.99
2023-04-09T10:38:45.047Z,42.73
2023-04-09T10:39:45.090Z,44.92
2023-04-09T10:40:45.020Z,45.76
2023-04-09T10:41:45.005Z,46.38
2023-04-09T10:42:45.017Z,46.68
2023-04-09T10:43:45.172Z,46.97
2023-04-09T10:44:44.972Z,47.23
2023-04-09T10:45:44.967Z,47.50
2023-04-09T10:46:45.041Z,47.20
2023-04-09T10:47:45.052Z,47.55
2023-04-09T10:48:44.938Z,48.97
2023-04-09T10:49:44.921Z,51.09
2023-04-09T10:50:45.034Z,48.88
2023-04-09T10:51:44.910Z,47.38
2023-04-09T10:52:44.981Z,45.79
2023-04-09T10:53:44.988Z,44.63
2023-04-09T10:54:44.958Z,41.71
2023-04-09T10:55:45.062Z,39.90
2023-04-09T10:56:44.861Z,40.20
2023-04-09T10:57:44.837Z,40.22
2023-04-09T10:58:44.825Z,41.02
2023-04-09T10:59:44.960Z,42.01
2023-04-09T11:00:45.125Z,40.48
2023-04-09T11:01:44.876Z,39.45
2023-04-09T11:02:45.066Z,39.65
2023-04-09T11:03:44.890Z,39.33
2023-04-09T11:04:44.870Z,37.69
2023-04-09T11:05:44.754Z,36.33
2023-04-09T11:06:44.748Z,35.38
2023-04-09T11:07:45.733Z,34.05
2023-04-09T11:08:44.736Z,33.42
2023-04-09T11:09:44.719Z,32.82
2023-04-09T11:10:44.951Z,32.21
2023-04-09T11:11:44.687Z,32.00
2023-04-09T11:12:45.496Z,31.41
2023-04-09T11:13:44.684Z,31.41
2023-04-09T11:14:44.653Z,32.13
2023-04-09T11:15:44.707Z,33.67
2023-04-09T11:16:44.703Z,33.37
2023-04-09T11:17:44.691Z,33.42
2023-04-09T11:18:44.613Z,34.41
2023-04-09T11:19:44.665Z,34.53
2023-04-09T11:20:44.602Z,36.02
2023-04-09T11:21:44.590Z,38.23
2023-04-09T11:22:44.586Z,40.59
2023-04-09T11:23:44.566Z,41.67
2023-04-09T11:24:45.506Z,39.23
2023-04-09T11:25:44.547Z,39.32
2023-04-09T11:26:44.548Z,38.77
2023-04-09T11:27:46.745Z,38.16
2023-04-09T11:28:44.527Z,37.92
2023-04-09T11:29:44.500Z,36.90
2023-04-09T11:30:44.496Z,36.35
2023-04-09T11:31:44.507Z,35.47
2023-04-09T11:32:44.520Z,35.25
2023-04-09T11:33:44.494Z,35.35
2023-04-09T11:34:44.477Z,35.14
2023-04-09T11:35:44.500Z,34.33
2023-04-09T11:36:44.711Z,34.23
2023-04-09T11:37:44.511Z,34.86
2023-04-09T11:38:44.484Z,34.46
2023-04-09T11:39:44.413Z,35.50
2023-04-09T11:40:44.462Z,37.98
2023-04-09T11:41:44.386Z,38.67
2023-04-09T11:42:44.383Z,39.14
2023-04-09T11:43:44.385Z,40.56
2023-04-09T11:44:44.343Z,40.34
2023-04-09T11:45:44.392Z,41.47
2023-04-09T11:46:44.375Z,41.39
2023-04-09T11:47:44.353Z,42.29
2023-04-09T11:48:44.305Z,42.13
2023-04-09T11:49:44.293Z,42.46
2023-04-09T11:50:44.357Z,43.07
2023-04-09T11:51:44.303Z,43.29
2023-04-09T11:52:44.257Z,46.06
2023-04-09T11:53:44.248Z,47.44
2023-04-09T11:54:44.233Z,50.78
2023-04-09T11:55:44.274Z,51.46
2023-04-09T11:56:44.214Z,50.43
2023-04-09T11:57:44.221Z,50.76
2023-04-09T11:58:44.202Z,51.14
2023-04-09T11:59:44.204Z,51.43
2023-04-09T12:00:44.191Z,50.66
2023-04-09T12:01:44.266Z,48.88
2023-04-09T12:02:44.437Z,47.20
2023-04-09T12:03:44.222Z,46.96
2023-04-09T12:04:44.187Z,45.94
2023-04-09T12:05:48.531Z,44.49
2023-04-09T12:06:45.114Z,44.57
2023-04-09T12:07:48.883Z,42.95
2023-04-09T12:08:45.095Z,42.71
2023-04-09T12:09:44.106Z,42.51
2023-04-09T12:10:44.097Z,41.71
2023-04-09T12:11:44.088Z,41.11
2023-04-09T12:12:44.059Z,42.73
2023-04-09T12:13:44.059Z,43.23
2023-04-09T12:14:44.986Z,42.32
2023-04-09T12:15:44.053Z,42.13
2023-04-09T12:16:44.040Z,42.43
2023-04-09T12:17:44.042Z,43.33
2023-04-09T12:18:44.001Z,43.33
2023-04-09T12:19:44.024Z,43.25
2023-04-09T12:20:43.982Z,43.35
2023-04-09T12:21:44.001Z,44.05
2023-04-09T12:22:43.964Z,43.98
2023-04-09T12:23:43.972Z,44.09
2023-04-09T12:24:43.941Z,44.71
2023-04-09T12:25:43.945Z,45.54
2023-04-09T12:26:43.917Z,45.86
2023-04-09T12:27:43.912Z,45.56
2023-04-09T12:28:43.906Z,45.76
2023-04-09T12:29:43.884Z,46.44
2023-04-09T12:30:43.881Z,44.93
2023-04-09T12:31:43.969Z,47.65
2023-04-09T12:32:43.909Z,48.55
2023-04-09T12:33:44.073Z,49.70
2023-04-09T12:34:43.853Z,51.31
2023-04-09T12:35:43.979Z,51.09
2023-04-09T12:36:43.810Z,49.85
2023-04-09T12:37:43.806Z,50.89
2023-04-09T12:38:43.804Z,53.70
2023-04-09T12:39:43.793Z,56.10
2023-04-09T12:40:43.917Z,54.96
2023-04-09T12:41:43.766Z,55.24
2023-04-09T12:42:43.759Z,53.72
2023-04-09T12:43:43.906Z,53.14
2023-04-09T12:44:43.718Z,54.79
2023-04-09T12:45:43.846Z,54.89
2023-04-09T12:46:43.704Z,54.73
2023-04-09T12:47:43.798Z,55.24
2023-04-09T12:48:43.680Z,53.55
2023-04-09T12:49:43.665Z,54.66
2023-04-09T12:50:43.673Z,54.86
2023-04-09T12:51:43.650Z,55.66
2023-04-09T12:52:43.648Z,54.83